OMAA/AUH METAR and TAF weather

Enter ICAO airport designator
Station Type Date Time Source
OMAA METAR 2019/08/24 22:00 UTC NOAA

OMAA 242200Z 10004KT 080V140 CAVOK 34/15 Q1001 NOSIG


Station Type Date Time Source
OMAA Decoded METAR 2019/08/24 22:00 UTC NOAA

Station name not available
Aug 24, 2019 - 06:00 PM EDT / 2019.08.24 2200 UTC
Wind: from the E (100 degrees) at 5 MPH (4 KT) (direction variable):0
Visibility: greater than 7 mile(s):0
Temperature: 93 F (34 C)
Dew Point: 59 F (15 C)
Relative Humidity: 32%
Pressure (altimeter): 29.56 in. Hg (1001 hPa)
ob: OMAA 242200Z 10004KT 080V140 CAVOK 34/15 Q1001 NOSIG
cycle: 22

Station Type Date Time Source
OMAA TAF 2019/08/24 18:01 UTC NOAA

TAF OMAA 241700Z 2418/2600 07006KT 8000 NSC
BECMG 2423/2501 15007KT
BECMG 2507/2509 32014KT
BECMG 2515/2517 06006KT

Example: see airport list